sensor_id;sensor_type;location;lat;lon;timestamp;P1;durP1;ratioP1;P2;durP2;ratioP2
65377;SDS011;51982;51.042;13.806;2022-09-13T00:01:36;6.07;;;3.38;;
65377;SDS011;51982;51.042;13.806;2022-09-13T00:04:01;6.80;;;3.13;;
65377;SDS011;51982;51.042;13.806;2022-09-13T00:06:26;5.53;;;3.20;;
65377;SDS011;51982;51.042;13.806;2022-09-13T00:08:51;7.60;;;2.92;;
65377;SDS011;51982;51.042;13.806;2022-09-13T00:11:19;7.20;;;3.40;;
65377;SDS011;51982;51.042;13.806;2022-09-13T00:13:49;3.40;;;2.90;;
65377;SDS011;51982;51.042;13.806;2022-09-13T00:16:15;4.07;;;3.10;;
65377;SDS011;51982;51.042;13.806;2022-09-13T00:18:42;4.22;;;3.00;;
65377;SDS011;51982;51.042;13.806;2022-09-13T00:21:09;5.63;;;3.45;;
65377;SDS011;51982;51.042;13.806;2022-09-13T00:23:36;4.20;;;2.90;;
65377;SDS011;51982;51.042;13.806;2022-09-13T00:26:10;6.10;;;2.53;;
65377;SDS011;51982;51.042;13.806;2022-09-13T00:28:37;3.60;;;2.72;;
65377;SDS011;51982;51.042;13.806;2022-09-13T00:31:03;6.10;;;3.03;;
65377;SDS011;51982;51.042;13.806;2022-09-13T00:33:31;3.45;;;2.80;;
65377;SDS011;51982;51.042;13.806;2022-09-13T00:35:56;4.55;;;3.20;;
65377;SDS011;51982;51.042;13.806;2022-09-13T00:38:22;6.10;;;2.97;;
65377;SDS011;51982;51.042;13.806;2022-09-13T00:40:47;4.75;;;2.78;;
65377;SDS011;51982;51.042;13.806;2022-09-13T00:43:15;6.60;;;3.00;;
65377;SDS011;51982;51.042;13.806;2022-09-13T00:45:42;3.83;;;2.90;;
65377;SDS011;51982;51.042;13.806;2022-09-13T00:48:07;5.80;;;2.75;;
65377;SDS011;51982;51.042;13.806;2022-09-13T00:50:46;4.68;;;2.83;;
65377;SDS011;51982;51.042;13.806;2022-09-13T00:53:27;4.90;;;2.78;;
65377;SDS011;51982;51.042;13.806;2022-09-13T00:55:57;6.13;;;3.03;;
65377;SDS011;51982;51.042;13.806;2022-09-13T00:58:32;4.65;;;3.20;;
65377;SDS011;51982;51.042;13.806;2022-09-13T01:01:02;3.83;;;3.20;;
65377;SDS011;51982;51.042;13.806;2022-09-13T01:03:29;9.18;;;2.90;;
65377;SDS011;51982;51.042;13.806;2022-09-13T01:05:58;4.47;;;3.03;;
65377;SDS011;51982;51.042;13.806;2022-09-13T01:08:27;4.15;;;2.83;;
65377;SDS011;51982;51.042;13.806;2022-09-13T01:10:55;8.18;;;3.20;;
65377;SDS011;51982;51.042;13.806;2022-09-13T01:13:23;4.38;;;2.92;;
65377;SDS011;51982;51.042;13.806;2022-09-13T01:15:50;4.57;;;2.88;;
65377;SDS011;51982;51.042;13.806;2022-09-13T01:18:16;4.68;;;3.40;;
65377;SDS011;51982;51.042;13.806;2022-09-13T01:23:48;4.95;;;3.15;;
65377;SDS011;51982;51.042;13.806;2022-09-13T01:35:22;3.28;;;2.78;;
65377;SDS011;51982;51.042;13.806;2022-09-13T01:43:45;7.22;;;3.38;;
65377;SDS011;51982;51.042;13.806;2022-09-13T01:46:28;3.55;;;3.00;;
65377;SDS011;51982;51.042;13.806;2022-09-13T01:51:56;3.25;;;2.70;;
65377;SDS011;51982;51.042;13.806;2022-09-13T01:54:29;3.58;;;2.75;;
65377;SDS011;51982;51.042;13.806;2022-09-13T01:57:09;4.63;;;3.08;;
65377;SDS011;51982;51.042;13.806;2022-09-13T01:59:45;4.82;;;3.28;;
65377;SDS011;51982;51.042;13.806;2022-09-13T02:02:22;3.70;;;2.90;;
65377;SDS011;51982;51.042;13.806;2022-09-13T02:05:02;4.25;;;3.00;;
65377;SDS011;51982;51.042;13.806;2022-09-13T02:07:39;4.00;;;2.92;;
65377;SDS011;51982;51.042;13.806;2022-09-13T02:10:07;11.35;;;3.45;;
65377;SDS011;51982;51.042;13.806;2022-09-13T02:12:38;6.10;;;2.97;;
65377;SDS011;51982;51.042;13.806;2022-09-13T02:15:11;3.85;;;3.10;;
65377;SDS011;51982;51.042;13.806;2022-09-13T02:17:42;5.90;;;3.22;;
65377;SDS011;51982;51.042;13.806;2022-09-13T02:22:53;3.85;;;3.03;;
65377;SDS011;51982;51.042;13.806;2022-09-13T02:25:21;6.45;;;3.50;;
65377;SDS011;51982;51.042;13.806;2022-09-13T02:27:49;3.70;;;2.97;;
65377;SDS011;51982;51.042;13.806;2022-09-13T02:30:18;3.65;;;3.10;;
65377;SDS011;51982;51.042;13.806;2022-09-13T02:32:47;5.95;;;3.10;;
65377;SDS011;51982;51.042;13.806;2022-09-13T02:35:26;4.65;;;3.00;;
65377;SDS011;51982;51.042;13.806;2022-09-13T02:38:00;4.47;;;2.95;;
65377;SDS011;51982;51.042;13.806;2022-09-13T02:40:33;4.18;;;2.95;;
65377;SDS011;51982;51.042;13.806;2022-09-13T02:43:06;3.97;;;2.95;;
65377;SDS011;51982;51.042;13.806;2022-09-13T02:45:37;3.65;;;2.90;;
65377;SDS011;51982;51.042;13.806;2022-09-13T02:48:09;3.88;;;3.00;;
65377;SDS011;51982;51.042;13.806;2022-09-13T02:50:45;4.38;;;3.17;;
65377;SDS011;51982;51.042;13.806;2022-09-13T02:53:37;5.07;;;3.15;;
65377;SDS011;51982;51.042;13.806;2022-09-13T03:01:15;5.65;;;3.63;;
65377;SDS011;51982;51.042;13.806;2022-09-13T03:03:41;4.38;;;3.20;;
65377;SDS011;51982;51.042;13.806;2022-09-13T03:06:06;7.25;;;3.50;;
65377;SDS011;51982;51.042;13.806;2022-09-13T03:08:32;4.78;;;2.83;;
65377;SDS011;51982;51.042;13.806;2022-09-13T03:14:05;5.25;;;3.08;;
65377;SDS011;51982;51.042;13.806;2022-09-13T03:19:56;3.72;;;2.92;;
65377;SDS011;51982;51.042;13.806;2022-09-13T03:29:02;3.83;;;3.30;;
65377;SDS011;51982;51.042;13.806;2022-09-13T03:31:48;3.88;;;2.90;;
65377;SDS011;51982;51.042;13.806;2022-09-13T03:34:25;6.45;;;2.83;;
65377;SDS011;51982;51.042;13.806;2022-09-13T03:37:33;3.60;;;2.80;;
65377;SDS011;51982;51.042;13.806;2022-09-13T03:40:00;8.20;;;3.13;;
65377;SDS011;51982;51.042;13.806;2022-09-13T03:42:32;5.43;;;3.13;;
65377;SDS011;51982;51.042;13.806;2022-09-13T03:45:02;5.50;;;3.05;;
65377;SDS011;51982;51.042;13.806;2022-09-13T03:47:29;4.72;;;3.30;;
65377;SDS011;51982;51.042;13.806;2022-09-13T03:49:58;5.35;;;2.85;;
65377;SDS011;51982;51.042;13.806;2022-09-13T03:52:25;5.82;;;3.00;;
65377;SDS011;51982;51.042;13.806;2022-09-13T03:54:51;3.28;;;2.70;;
65377;SDS011;51982;51.042;13.806;2022-09-13T03:57:19;5.47;;;3.28;;
65377;SDS011;51982;51.042;13.806;2022-09-13T03:59:46;5.50;;;3.10;;
65377;SDS011;51982;51.042;13.806;2022-09-13T04:02:16;4.18;;;3.10;;
65377;SDS011;51982;51.042;13.806;2022-09-13T04:04:42;6.63;;;2.90;;
65377;SDS011;51982;51.042;13.806;2022-09-13T04:07:09;4.75;;;3.17;;
65377;SDS011;51982;51.042;13.806;2022-09-13T04:09:36;3.75;;;2.90;;
65377;SDS011;51982;51.042;13.806;2022-09-13T04:12:01;6.50;;;3.47;;
65377;SDS011;51982;51.042;13.806;2022-09-13T04:14:27;4.25;;;2.97;;
65377;SDS011;51982;51.042;13.806;2022-09-13T04:16:53;8.88;;;3.10;;
65377;SDS011;51982;51.042;13.806;2022-09-13T04:19:19;4.00;;;3.17;;
65377;SDS011;51982;51.042;13.806;2022-09-13T04:21:48;5.00;;;3.60;;
65377;SDS011;51982;51.042;13.806;2022-09-13T04:24:14;4.97;;;3.58;;
65377;SDS011;51982;51.042;13.806;2022-09-13T04:26:40;6.47;;;3.97;;
65377;SDS011;51982;51.042;13.806;2022-09-13T04:29:05;5.63;;;4.23;;
65377;SDS011;51982;51.042;13.806;2022-09-13T04:31:31;6.97;;;4.57;;
65377;SDS011;51982;51.042;13.806;2022-09-13T04:33:56;7.10;;;4.37;;
65377;SDS011;51982;51.042;13.806;2022-09-13T04:36:24;6.43;;;3.92;;
65377;SDS011;51982;51.042;13.806;2022-09-13T04:38:49;7.00;;;4.30;;
65377;SDS011;51982;51.042;13.806;2022-09-13T04:41:14;6.77;;;3.93;;
65377;SDS011;51982;51.042;13.806;2022-09-13T04:43:41;6.53;;;3.83;;
65377;SDS011;51982;51.042;13.806;2022-09-13T04:46:06;8.93;;;3.87;;
65377;SDS011;51982;51.042;13.806;2022-09-13T04:48:31;5.50;;;3.73;;
65377;SDS011;51982;51.042;13.806;2022-09-13T04:51:00;5.80;;;3.73;;
65377;SDS011;51982;51.042;13.806;2022-09-13T04:53:28;7.53;;;3.67;;
65377;SDS011;51982;51.042;13.806;2022-09-13T04:55:58;12.15;;;3.55;;
65377;SDS011;51982;51.042;13.806;2022-09-13T04:58:27;5.65;;;3.20;;
65377;SDS011;51982;51.042;13.806;2022-09-13T05:00:52;4.68;;;3.67;;
65377;SDS011;51982;51.042;13.806;2022-09-13T05:03:20;8.25;;;4.38;;
65377;SDS011;51982;51.042;13.806;2022-09-13T05:05:47;5.35;;;3.72;;
65377;SDS011;51982;51.042;13.806;2022-09-13T05:08:12;5.68;;;3.72;;
65377;SDS011;51982;51.042;13.806;2022-09-13T05:10:37;9.57;;;4.03;;
65377;SDS011;51982;51.042;13.806;2022-09-13T05:13:02;7.22;;;3.70;;
65377;SDS011;51982;51.042;13.806;2022-09-13T05:15:28;5.93;;;3.70;;
65377;SDS011;51982;51.042;13.806;2022-09-13T05:17:53;7.00;;;3.60;;
65377;SDS011;51982;51.042;13.806;2022-09-13T05:20:18;5.43;;;3.92;;
65377;SDS011;51982;51.042;13.806;2022-09-13T05:22:43;7.00;;;3.90;;
65377;SDS011;51982;51.042;13.806;2022-09-13T05:25:09;5.97;;;3.63;;
65377;SDS011;51982;51.042;13.806;2022-09-13T05:27:34;4.20;;;3.27;;
65377;SDS011;51982;51.042;13.806;2022-09-13T05:29:59;7.70;;;3.90;;
65377;SDS011;51982;51.042;13.806;2022-09-13T05:32:24;7.83;;;3.90;;
65377;SDS011;51982;51.042;13.806;2022-09-13T05:34:49;5.53;;;3.60;;
65377;SDS011;51982;51.042;13.806;2022-09-13T05:37:15;7.10;;;3.57;;
65377;SDS011;51982;51.042;13.806;2022-09-13T05:39:40;6.10;;;4.03;;
65377;SDS011;51982;51.042;13.806;2022-09-13T05:42:05;8.03;;;3.90;;
65377;SDS011;51982;51.042;13.806;2022-09-13T05:44:30;6.63;;;3.58;;
65377;SDS011;51982;51.042;13.806;2022-09-13T05:46:56;8.20;;;3.67;;
65377;SDS011;51982;51.042;13.806;2022-09-13T05:49:21;5.80;;;3.42;;
65377;SDS011;51982;51.042;13.806;2022-09-13T05:51:47;9.32;;;3.42;;
65377;SDS011;51982;51.042;13.806;2022-09-13T05:54:12;5.20;;;3.28;;
65377;SDS011;51982;51.042;13.806;2022-09-13T05:56:37;4.47;;;3.22;;
65377;SDS011;51982;51.042;13.806;2022-09-13T05:59:02;5.78;;;3.60;;
65377;SDS011;51982;51.042;13.806;2022-09-13T06:01:28;9.30;;;3.30;;
65377;SDS011;51982;51.042;13.806;2022-09-13T06:03:54;8.05;;;4.50;;
65377;SDS011;51982;51.042;13.806;2022-09-13T06:06:21;8.32;;;3.70;;
65377;SDS011;51982;51.042;13.806;2022-09-13T06:08:47;8.63;;;3.28;;
65377;SDS011;51982;51.042;13.806;2022-09-13T06:11:16;6.57;;;3.40;;
65377;SDS011;51982;51.042;13.806;2022-09-13T06:13:41;4.15;;;3.05;;
65377;SDS011;51982;51.042;13.806;2022-09-13T06:16:08;7.30;;;3.13;;
65377;SDS011;51982;51.042;13.806;2022-09-13T06:18:34;5.95;;;3.17;;
65377;SDS011;51982;51.042;13.806;2022-09-13T06:21:04;5.55;;;3.67;;
65377;SDS011;51982;51.042;13.806;2022-09-13T06:23:31;4.90;;;3.58;;
65377;SDS011;51982;51.042;13.806;2022-09-13T06:26:01;5.65;;;3.53;;
65377;SDS011;51982;51.042;13.806;2022-09-13T06:28:34;8.00;;;3.67;;
65377;SDS011;51982;51.042;13.806;2022-09-13T06:31:04;7.15;;;3.40;;
65377;SDS011;51982;51.042;13.806;2022-09-13T06:33:36;7.70;;;3.17;;
65377;SDS011;51982;51.042;13.806;2022-09-13T06:36:04;8.05;;;3.60;;
65377;SDS011;51982;51.042;13.806;2022-09-13T06:38:31;6.40;;;3.05;;
65377;SDS011;51982;51.042;13.806;2022-09-13T06:41:00;10.85;;;2.63;;
65377;SDS011;51982;51.042;13.806;2022-09-13T06:43:28;4.65;;;2.90;;
65377;SDS011;51982;51.042;13.806;2022-09-13T06:45:57;5.18;;;3.20;;
65377;SDS011;51982;51.042;13.806;2022-09-13T06:48:23;11.23;;;3.20;;
65377;SDS011;51982;51.042;13.806;2022-09-13T06:50:48;6.07;;;3.50;;
65377;SDS011;51982;51.042;13.806;2022-09-13T06:53:14;5.50;;;3.63;;
65377;SDS011;51982;51.042;13.806;2022-09-13T06:55:39;5.33;;;3.30;;
65377;SDS011;51982;51.042;13.806;2022-09-13T06:58:04;4.63;;;3.07;;
65377;SDS011;51982;51.042;13.806;2022-09-13T07:00:29;5.50;;;2.83;;
65377;SDS011;51982;51.042;13.806;2022-09-13T07:02:55;9.73;;;3.22;;
65377;SDS011;51982;51.042;13.806;2022-09-13T07:05:20;8.43;;;3.23;;
65377;SDS011;51982;51.042;13.806;2022-09-13T07:07:45;5.10;;;3.15;;
65377;SDS011;51982;51.042;13.806;2022-09-13T07:10:11;6.55;;;3.25;;
65377;SDS011;51982;51.042;13.806;2022-09-13T07:12:38;6.55;;;2.97;;
65377;SDS011;51982;51.042;13.806;2022-09-13T07:15:05;4.32;;;2.80;;
65377;SDS011;51982;51.042;13.806;2022-09-13T07:17:30;4.68;;;2.83;;
65377;SDS011;51982;51.042;13.806;2022-09-13T07:19:55;4.00;;;2.83;;
65377;SDS011;51982;51.042;13.806;2022-09-13T07:22:21;4.03;;;3.00;;
65377;SDS011;51982;51.042;13.806;2022-09-13T07:24:50;6.47;;;3.20;;
65377;SDS011;51982;51.042;13.806;2022-09-13T07:27:16;8.77;;;3.00;;
65377;SDS011;51982;51.042;13.806;2022-09-13T07:29:41;13.63;;;2.92;;
65377;SDS011;51982;51.042;13.806;2022-09-13T07:32:06;4.32;;;3.00;;
65377;SDS011;51982;51.042;13.806;2022-09-13T07:34:31;4.00;;;2.90;;
65377;SDS011;51982;51.042;13.806;2022-09-13T07:36:57;5.37;;;3.07;;
65377;SDS011;51982;51.042;13.806;2022-09-13T07:39:22;4.40;;;3.00;;
65377;SDS011;51982;51.042;13.806;2022-09-13T07:41:48;9.98;;;3.15;;
65377;SDS011;51982;51.042;13.806;2022-09-13T07:44:14;4.03;;;2.97;;
65377;SDS011;51982;51.042;13.806;2022-09-13T07:46:39;3.75;;;2.72;;
65377;SDS011;51982;51.042;13.806;2022-09-13T07:49:07;4.95;;;3.03;;
65377;SDS011;51982;51.042;13.806;2022-09-13T07:51:34;3.30;;;2.55;;
65377;SDS011;51982;51.042;13.806;2022-09-13T07:54:03;2.83;;;2.50;;
65377;SDS011;51982;51.042;13.806;2022-09-13T07:56:31;4.45;;;3.22;;
65377;SDS011;51982;51.042;13.806;2022-09-13T07:59:01;3.40;;;2.70;;
65377;SDS011;51982;51.042;13.806;2022-09-13T08:01:32;4.97;;;3.08;;
65377;SDS011;51982;51.042;13.806;2022-09-13T08:03:59;5.63;;;3.80;;
65377;SDS011;51982;51.042;13.806;2022-09-13T08:06:26;7.63;;;3.63;;
65377;SDS011;51982;51.042;13.806;2022-09-13T08:08:53;6.43;;;3.78;;
65377;SDS011;51982;51.042;13.806;2022-09-13T08:11:22;9.10;;;4.15;;
65377;SDS011;51982;51.042;13.806;2022-09-13T08:13:51;5.90;;;4.28;;
65377;SDS011;51982;51.042;13.806;2022-09-13T08:16:18;5.93;;;3.95;;
65377;SDS011;51982;51.042;13.806;2022-09-13T08:18:45;7.38;;;4.25;;
65377;SDS011;51982;51.042;13.806;2022-09-13T08:21:11;5.82;;;4.50;;
65377;SDS011;51982;51.042;13.806;2022-09-13T08:23:37;6.07;;;4.30;;
65377;SDS011;51982;51.042;13.806;2022-09-13T08:26:03;8.80;;;5.60;;
65377;SDS011;51982;51.042;13.806;2022-09-13T08:28:30;10.52;;;5.30;;
65377;SDS011;51982;51.042;13.806;2022-09-13T08:31:01;10.05;;;5.40;;
65377;SDS011;51982;51.042;13.806;2022-09-13T08:33:27;7.15;;;5.20;;
65377;SDS011;51982;51.042;13.806;2022-09-13T08:35:53;7.27;;;5.30;;
65377;SDS011;51982;51.042;13.806;2022-09-13T08:38:19;7.07;;;5.07;;
65377;SDS011;51982;51.042;13.806;2022-09-13T08:40:58;6.32;;;4.95;;
65377;SDS011;51982;51.042;13.806;2022-09-13T08:43:44;7.18;;;4.90;;
65377;SDS011;51982;51.042;13.806;2022-09-13T08:48:54;7.97;;;4.88;;
65377;SDS011;51982;51.042;13.806;2022-09-13T08:53:57;7.47;;;5.05;;
65377;SDS011;51982;51.042;13.806;2022-09-13T09:04:48;7.47;;;4.55;;
65377;SDS011;51982;51.042;13.806;2022-09-13T09:07:35;8.85;;;4.78;;
65377;SDS011;51982;51.042;13.806;2022-09-13T09:10:10;7.30;;;4.25;;
65377;SDS011;51982;51.042;13.806;2022-09-13T09:12:42;6.05;;;4.07;;
65377;SDS011;51982;51.042;13.806;2022-09-13T09:17:47;6.22;;;3.97;;
65377;SDS011;51982;51.042;13.806;2022-09-13T09:22:47;5.30;;;4.20;;
65377;SDS011;51982;51.042;13.806;2022-09-13T09:25:13;6.13;;;4.00;;
65377;SDS011;51982;51.042;13.806;2022-09-13T09:27:39;5.82;;;4.00;;
65377;SDS011;51982;51.042;13.806;2022-09-13T09:30:04;7.72;;;3.83;;
65377;SDS011;51982;51.042;13.806;2022-09-13T09:38:32;5.60;;;3.95;;
65377;SDS011;51982;51.042;13.806;2022-09-13T09:41:05;6.20;;;3.85;;
65377;SDS011;51982;51.042;13.806;2022-09-13T09:43:52;6.53;;;3.67;;
65377;SDS011;51982;51.042;13.806;2022-09-13T09:46:25;5.95;;;4.10;;
65377;SDS011;51982;51.042;13.806;2022-09-13T09:48:53;6.95;;;3.70;;
65377;SDS011;51982;51.042;13.806;2022-09-13T09:51:22;8.95;;;4.28;;
65377;SDS011;51982;51.042;13.806;2022-09-13T09:53:51;6.15;;;3.95;;
65377;SDS011;51982;51.042;13.806;2022-09-13T09:56:22;6.15;;;3.70;;
65377;SDS011;51982;51.042;13.806;2022-09-13T09:58:49;6.07;;;4.18;;
65377;SDS011;51982;51.042;13.806;2022-09-13T10:01:21;4.72;;;3.65;;
65377;SDS011;51982;51.042;13.806;2022-09-13T10:06:29;4.95;;;3.90;;
65377;SDS011;51982;51.042;13.806;2022-09-13T10:08:59;5.18;;;3.72;;
65377;SDS011;51982;51.042;13.806;2022-09-13T10:11:36;12.43;;;3.70;;
65377;SDS011;51982;51.042;13.806;2022-09-13T10:14:04;5.20;;;3.65;;
65377;SDS011;51982;51.042;13.806;2022-09-13T10:16:30;7.93;;;3.80;;
65377;SDS011;51982;51.042;13.806;2022-09-13T10:21:59;5.75;;;3.50;;
65377;SDS011;51982;51.042;13.806;2022-09-13T10:24:26;6.13;;;3.60;;
65377;SDS011;51982;51.042;13.806;2022-09-13T10:26:52;7.95;;;3.55;;
65377;SDS011;51982;51.042;13.806;2022-09-13T10:29:17;4.47;;;3.30;;
65377;SDS011;51982;51.042;13.806;2022-09-13T10:31:43;9.82;;;3.60;;
65377;SDS011;51982;51.042;13.806;2022-09-13T10:34:16;4.70;;;3.35;;
65377;SDS011;51982;51.042;13.806;2022-09-13T10:39:23;7.85;;;4.10;;
65377;SDS011;51982;51.042;13.806;2022-09-13T10:42:00;4.60;;;3.33;;
65377;SDS011;51982;51.042;13.806;2022-09-13T10:44:51;8.45;;;3.30;;
65377;SDS011;51982;51.042;13.806;2022-09-13T10:47:21;5.35;;;3.10;;
65377;SDS011;51982;51.042;13.806;2022-09-13T10:49:50;3.75;;;3.00;;
65377;SDS011;51982;51.042;13.806;2022-09-13T10:52:24;5.38;;;3.42;;
65377;SDS011;51982;51.042;13.806;2022-09-13T10:57:34;5.88;;;3.10;;
65377;SDS011;51982;51.042;13.806;2022-09-13T11:00:01;7.43;;;3.60;;
65377;SDS011;51982;51.042;13.806;2022-09-13T11:02:36;6.53;;;3.25;;
65377;SDS011;51982;51.042;13.806;2022-09-13T11:05:19;4.30;;;3.20;;
65377;SDS011;51982;51.042;13.806;2022-09-13T11:07:52;4.97;;;3.20;;
65377;SDS011;51982;51.042;13.806;2022-09-13T11:10:31;4.38;;;2.95;;
65377;SDS011;51982;51.042;13.806;2022-09-13T11:13:06;5.75;;;3.55;;
65377;SDS011;51982;51.042;13.806;2022-09-13T11:15:35;4.18;;;3.08;;
65377;SDS011;51982;51.042;13.806;2022-09-13T11:18:31;4.32;;;3.30;;
65377;SDS011;51982;51.042;13.806;2022-09-13T11:29:08;7.28;;;2.80;;
65377;SDS011;51982;51.042;13.806;2022-09-13T11:37:25;3.92;;;2.53;;
65377;SDS011;51982;51.042;13.806;2022-09-13T11:40:14;5.95;;;2.70;;
65377;SDS011;51982;51.042;13.806;2022-09-13T11:48:41;3.40;;;2.35;;
65377;SDS011;51982;51.042;13.806;2022-09-13T11:56:45;2.95;;;1.75;;
65377;SDS011;51982;51.042;13.806;2022-09-13T12:01:49;4.07;;;1.80;;
65377;SDS011;51982;51.042;13.806;2022-09-13T12:04:24;1.77;;;1.52;;
65377;SDS011;51982;51.042;13.806;2022-09-13T12:07:00;1.95;;;1.70;;
65377;SDS011;51982;51.042;13.806;2022-09-13T12:09:29;2.88;;;1.95;;
65377;SDS011;51982;51.042;13.806;2022-09-13T12:12:07;3.97;;;1.95;;
65377;SDS011;51982;51.042;13.806;2022-09-13T12:14:44;4.28;;;2.10;;
65377;SDS011;51982;51.042;13.806;2022-09-13T12:17:22;3.25;;;1.92;;
65377;SDS011;51982;51.042;13.806;2022-09-13T12:19:51;1.77;;;1.60;;
65377;SDS011;51982;51.042;13.806;2022-09-13T12:22:22;1.80;;;1.50;;
65377;SDS011;51982;51.042;13.806;2022-09-13T12:24:52;3.40;;;1.90;;
65377;SDS011;51982;51.042;13.806;2022-09-13T12:27:44;2.60;;;1.70;;
65377;SDS011;51982;51.042;13.806;2022-09-13T12:30:22;4.05;;;1.80;;
65377;SDS011;51982;51.042;13.806;2022-09-13T12:32:52;2.20;;;1.40;;
65377;SDS011;51982;51.042;13.806;2022-09-13T12:35:34;2.40;;;1.60;;
65377;SDS011;51982;51.042;13.806;2022-09-13T12:47:03;1.40;;;1.30;;
65377;SDS011;51982;51.042;13.806;2022-09-13T12:49:51;1.52;;;1.33;;
65377;SDS011;51982;51.042;13.806;2022-09-13T12:55:18;5.95;;;1.50;;
65377;SDS011;51982;51.042;13.806;2022-09-13T13:00:23;1.40;;;1.30;;
65377;SDS011;51982;51.042;13.806;2022-09-13T13:02:52;3.58;;;1.60;;
65377;SDS011;51982;51.042;13.806;2022-09-13T13:05:39;3.05;;;1.50;;
65377;SDS011;51982;51.042;13.806;2022-09-13T13:08:24;2.92;;;1.30;;
65377;SDS011;51982;51.042;13.806;2022-09-13T13:11:08;2.75;;;1.40;;
65377;SDS011;51982;51.042;13.806;2022-09-13T13:16:04;2.47;;;1.40;;
65377;SDS011;51982;51.042;13.806;2022-09-13T13:18:50;1.90;;;1.27;;
65377;SDS011;51982;51.042;13.806;2022-09-13T13:21:25;1.80;;;1.25;;
65377;SDS011;51982;51.042;13.806;2022-09-13T13:24:36;2.20;;;1.50;;
65377;SDS011;51982;51.042;13.806;2022-09-13T13:26:50;1.20;;;1.10;;
65377;SDS011;51982;51.042;13.806;2022-09-13T13:36:47;2.00;;;1.30;;
65377;SDS011;51982;51.042;13.806;2022-09-13T13:41:51;2.90;;;1.90;;
65377;SDS011;51982;51.042;13.806;2022-09-13T14:00:10;1.85;;;1.40;;
65377;SDS011;51982;51.042;13.806;2022-09-13T14:13:47;3.88;;;1.40;;
65377;SDS011;51982;51.042;13.806;2022-09-13T14:16:29;3.78;;;1.20;;
65377;SDS011;51982;51.042;13.806;2022-09-13T14:19:17;1.23;;;1.10;;
65377;SDS011;51982;51.042;13.806;2022-09-13T14:24:40;4.25;;;1.10;;
65377;SDS011;51982;51.042;13.806;2022-09-13T14:27:13;2.83;;;1.30;;
65377;SDS011;51982;51.042;13.806;2022-09-13T14:29:48;4.10;;;1.30;;
65377;SDS011;51982;51.042;13.806;2022-09-13T14:32:19;2.30;;;1.35;;
65377;SDS011;51982;51.042;13.806;2022-09-13T14:35:00;1.30;;;1.20;;
65377;SDS011;51982;51.042;13.806;2022-09-13T14:37:30;1.52;;;1.10;;
65377;SDS011;51982;51.042;13.806;2022-09-13T14:42:39;3.13;;;1.10;;
65377;SDS011;51982;51.042;13.806;2022-09-13T14:45:14;3.08;;;1.15;;
65377;SDS011;51982;51.042;13.806;2022-09-13T14:50:29;2.03;;;1.23;;
65377;SDS011;51982;51.042;13.806;2022-09-13T14:53:00;1.20;;;1.10;;
65377;SDS011;51982;51.042;13.806;2022-09-13T14:56:13;1.23;;;1.00;;
65377;SDS011;51982;51.042;13.806;2022-09-13T14:58:23;3.67;;;1.40;;
65377;SDS011;51982;51.042;13.806;2022-09-13T15:00:57;2.10;;;1.40;;
65377;SDS011;51982;51.042;13.806;2022-09-13T15:03:24;6.57;;;1.42;;
65377;SDS011;51982;51.042;13.806;2022-09-13T15:06:00;3.75;;;1.40;;
65377;SDS011;51982;51.042;13.806;2022-09-13T15:10:59;5.40;;;1.40;;
65377;SDS011;51982;51.042;13.806;2022-09-13T15:13:25;3.67;;;1.33;;
65377;SDS011;51982;51.042;13.806;2022-09-13T15:15:54;1.95;;;1.20;;
65377;SDS011;51982;51.042;13.806;2022-09-13T15:23:12;2.10;;;1.40;;
65377;SDS011;51982;51.042;13.806;2022-09-13T15:26:22;3.28;;;1.27;;
65377;SDS011;51982;51.042;13.806;2022-09-13T15:28:53;2.38;;;1.38;;
65377;SDS011;51982;51.042;13.806;2022-09-13T15:31:25;3.63;;;1.50;;
65377;SDS011;51982;51.042;13.806;2022-09-13T15:36:47;1.65;;;1.35;;
65377;SDS011;51982;51.042;13.806;2022-09-13T15:39:25;1.98;;;1.45;;
65377;SDS011;51982;51.042;13.806;2022-09-13T15:41:54;5.70;;;1.42;;
65377;SDS011;51982;51.042;13.806;2022-09-13T15:44:22;1.95;;;1.50;;
65377;SDS011;51982;51.042;13.806;2022-09-13T15:46:49;2.60;;;1.58;;
65377;SDS011;51982;51.042;13.806;2022-09-13T15:49:19;2.65;;;1.48;;
65377;SDS011;51982;51.042;13.806;2022-09-13T15:51:46;13.73;;;1.80;;
65377;SDS011;51982;51.042;13.806;2022-09-13T15:54:18;2.30;;;1.60;;
65377;SDS011;51982;51.042;13.806;2022-09-13T15:56:44;1.85;;;1.50;;
65377;SDS011;51982;51.042;13.806;2022-09-13T15:59:14;3.50;;;1.88;;
65377;SDS011;51982;51.042;13.806;2022-09-13T16:01:42;1.77;;;1.55;;
65377;SDS011;51982;51.042;13.806;2022-09-13T16:04:08;2.45;;;1.80;;
65377;SDS011;51982;51.042;13.806;2022-09-13T16:06:34;2.75;;;1.55;;
65377;SDS011;51982;51.042;13.806;2022-09-13T16:09:00;2.38;;;1.50;;
65377;SDS011;51982;51.042;13.806;2022-09-13T16:11:26;2.00;;;1.50;;
65377;SDS011;51982;51.042;13.806;2022-09-13T16:13:52;2.10;;;1.40;;
65377;SDS011;51982;51.042;13.806;2022-09-13T16:16:17;2.13;;;1.50;;
65377;SDS011;51982;51.042;13.806;2022-09-13T16:18:42;1.83;;;1.40;;
65377;SDS011;51982;51.042;13.806;2022-09-13T16:21:08;4.72;;;1.58;;
65377;SDS011;51982;51.042;13.806;2022-09-13T16:23:33;4.40;;;1.70;;
65377;SDS011;51982;51.042;13.806;2022-09-13T16:25:58;4.22;;;1.80;;
65377;SDS011;51982;51.042;13.806;2022-09-13T16:28:24;1.83;;;1.45;;
65377;SDS011;51982;51.042;13.806;2022-09-13T16:30:50;2.97;;;1.77;;
65377;SDS011;51982;51.042;13.806;2022-09-13T16:33:15;1.73;;;1.60;;
65377;SDS011;51982;51.042;13.806;2022-09-13T16:35:43;5.55;;;1.65;;
65377;SDS011;51982;51.042;13.806;2022-09-13T16:38:09;2.50;;;1.60;;
65377;SDS011;51982;51.042;13.806;2022-09-13T16:40:37;3.03;;;1.77;;
65377;SDS011;51982;51.042;13.806;2022-09-13T16:43:03;6.50;;;4.40;;
65377;SDS011;51982;51.042;13.806;2022-09-13T16:45:28;7.03;;;2.80;;
65377;SDS011;51982;51.042;13.806;2022-09-13T16:47:53;4.85;;;2.40;;
65377;SDS011;51982;51.042;13.806;2022-09-13T16:50:19;2.93;;;2.60;;
65377;SDS011;51982;51.042;13.806;2022-09-13T16:52:44;4.13;;;2.67;;
65377;SDS011;51982;51.042;13.806;2022-09-13T16:55:09;4.40;;;2.20;;
65377;SDS011;51982;51.042;13.806;2022-09-13T16:57:34;5.15;;;2.10;;
65377;SDS011;51982;51.042;13.806;2022-09-13T17:00:01;3.20;;;2.22;;
65377;SDS011;51982;51.042;13.806;2022-09-13T17:02:31;3.53;;;2.00;;
65377;SDS011;51982;51.042;13.806;2022-09-13T17:04:57;3.30;;;1.80;;
65377;SDS011;51982;51.042;13.806;2022-09-13T17:07:23;4.60;;;2.00;;
65377;SDS011;51982;51.042;13.806;2022-09-13T17:09:48;2.58;;;1.80;;
65377;SDS011;51982;51.042;13.806;2022-09-13T17:12:13;4.20;;;1.90;;
65377;SDS011;51982;51.042;13.806;2022-09-13T17:14:40;4.85;;;1.90;;
65377;SDS011;51982;51.042;13.806;2022-09-13T17:17:11;3.35;;;2.03;;
65377;SDS011;51982;51.042;13.806;2022-09-13T17:19:37;3.55;;;2.08;;
65377;SDS011;51982;51.042;13.806;2022-09-13T17:22:03;3.28;;;2.17;;
65377;SDS011;51982;51.042;13.806;2022-09-13T17:24:31;5.63;;;2.20;;
65377;SDS011;51982;51.042;13.806;2022-09-13T17:26:58;6.07;;;2.75;;
65377;SDS011;51982;51.042;13.806;2022-09-13T17:29:24;4.38;;;2.90;;
65377;SDS011;51982;51.042;13.806;2022-09-13T17:31:51;8.23;;;3.20;;
65377;SDS011;51982;51.042;13.806;2022-09-13T17:34:17;6.83;;;2.80;;
65377;SDS011;51982;51.042;13.806;2022-09-13T17:36:43;6.40;;;2.50;;
65377;SDS011;51982;51.042;13.806;2022-09-13T17:39:08;5.00;;;2.60;;
65377;SDS011;51982;51.042;13.806;2022-09-13T17:41:34;5.20;;;2.17;;
65377;SDS011;51982;51.042;13.806;2022-09-13T17:44:02;3.40;;;2.20;;
65377;SDS011;51982;51.042;13.806;2022-09-13T17:46:28;6.65;;;2.10;;